Flight Track Log - Related Links

Times and Time Zones

All times are in EDT time to prevent confusion due to time zone crossing. See the DAL3606 flight status page for this flight to view local times or setup timezone preferences in your user account.

Time Position Orientation Groundspeed Altitude Reporting Facility
EDT Latitude Longitude Course Direction KTS MPH feet Rate Location/Type
Mon 07:39:52 AM 33.6331 -84.3731 53° Northeast 454 522 3,100  Level Atlanta Center
Mon 07:40:43 AM 33.6333 -84.3000 90° East 240 276 4,700 2,270 Climbing Atlanta TRACON
Mon 07:41:43 AM 33.6333 -84.2167 90° East 276 318 7,300 2,446 Climbing Atlanta TRACON
Mon 07:42:53 AM 33.6356 -84.1136 88° East 286 329 10,000 2,215 Climbing Atlanta Center
Mon 07:43:00 AM 33.8807 -83.7646 48° Northeast  Level FlightAware Approximate
Mon 07:43:53 AM 33.6878 -84.0339 52° Northeast 279 321 12,100  Level Atlanta Center
Mon 07:44:00 AM 33.9574 -83.6514 53° Northeast  Level FlightAware Approximate
Mon 07:44:53 AM 33.7544 -83.9414 49° Northeast 307 353 13,400  Level Atlanta Center
Mon 07:45:00 AM 34.0303 -83.5343 53° Northeast  Level FlightAware Approximate
Mon 07:45:53 AM 33.8336 -83.8436 46° Northeast 366 421 14,800  Level Atlanta Center
Mon 07:46:53 AM 33.9086 -83.7433 48° Northeast 397 457 18,000 2,500 Climbing Atlanta Center
Mon 07:47:53 AM 33.9753 -83.6456 51° Northeast 385 443 19,800 1,850 Climbing Atlanta Center
Mon 07:48:53 AM 34.0436 -83.5375 53° Northeast 385 443 21,700 1,650 Climbing Atlanta Center
Mon 07:49:53 AM 34.1119 -83.4292 53° Northeast 391 450 23,100 1,150 Climbing Atlanta Center
Mon 07:50:53 AM 34.1825 -83.3131 54° Northeast 413 475 24,000 450 Climbing Atlanta Center
Mon 07:51:53 AM 34.2567 -83.1944 53° Northeast 431 496 24,000  Level Atlanta Center
Mon 07:52:53 AM 34.3289 -83.0803 53° Northeast 431 496 24,000  Level Atlanta Center
Mon 07:53:53 AM 34.3969 -82.9689 53° Northeast 425 489 24,000  Level Atlanta Center
Mon 07:54:53 AM 34.4708 -82.8494 53° Northeast 432 497 24,000 100 Level Atlanta Center
Mon 07:55:53 AM 34.5447 -82.7275 54° Northeast 446 513 24,200 350 Climbing Atlanta Center
Mon 07:56:53 AM 34.6186 -82.6050 54° Northeast 473 544 24,700 700 Climbing Atlanta Center
Mon 07:57:53 AM 34.7108 -82.4619 52° Northeast 478 550 25,600 900 Climbing Atlanta Center
Mon 07:58:53 AM 34.7944 -82.3239 54° Northeast 495 570 26,500 700 Climbing Atlanta Center
Mon 07:59:53 AM 34.8822 -82.1803 53° Northeast 505 581 27,000 450 Climbing Atlanta Center
Mon 08:00:53 AM 34.9717 -82.0389 52° Northeast 526 605 27,400 750 Climbing Atlanta Center
Mon 08:01:53 AM 35.0547 -81.8922 55° Northeast 532 612 28,500 950 Climbing Atlanta Center
Mon 08:02:53 AM 35.1356 -81.7403 57° Northeast 532 612 29,300 850 Climbing Atlanta Center
Mon 08:03:53 AM 35.2161 -81.5881 57° Northeast 532 612 30,200 850 Climbing Atlanta Center
Mon 08:04:53 AM 35.2964 -81.4331 58° Northeast 532 612 31,000 400 Climbing Atlanta Center
Mon 08:05:53 AM 35.3783 -81.2725 58° Northeast 543 625 31,000  Level Atlanta Center
Mon 08:06:53 AM 35.4622 -81.1142 57° Northeast 554 638 31,000  Level Atlanta Center
Mon 08:07:53 AM 35.5458 -80.9503 58° Northeast 560 644 31,000  Level Atlanta Center
Mon 08:08:53 AM 35.6294 -80.7914 57° Northeast 560 644 31,000  Level Atlanta Center
Mon 08:09:53 AM 35.7106 -80.6347 57° Northeast 554 638 31,000  Level Atlanta Center
Mon 08:10:53 AM 35.7936 -80.4700 58° Northeast 559 643 31,000  Level Atlanta Center
Mon 08:11:53 AM 35.8764 -80.3100 57° Northeast 548 631 31,000  Level Atlanta Center
Mon 08:13:54 AM 36.0419 -79.9872 58° Northeast 559 643 31,000  Level Washington Center
Mon 08:14:54 AM 36.1311 -79.8303 55° Northeast 554 638 31,000  Level Washington Center
Mon 08:15:54 AM 36.2181 -79.6728 56° Northeast 554 638 31,000 -150 Level Washington Center
Mon 08:16:54 AM 36.3067 -79.5175 55° Northeast 554 638 30,700 -900 Descending Washington Center
Mon 08:17:54 AM 36.3931 -79.3592 56° Northeast 549 632 29,200 -1,500 Descending Washington Center
Mon 08:18:54 AM 36.4747 -79.2133 55° Northeast 533 613 27,700 -1,650 Descending Washington Center
Mon 08:19:54 AM 36.5583 -79.0700 54° Northeast 519 597 25,900 -1,350 Descending Washington Center
Mon 08:20:54 AM 36.6375 -78.9283 55° Northeast 514 592 25,000 -446 Descending Washington Center
Mon 08:21:55 AM 36.7058 -78.7967 57° Northeast 502 578 25,000  Level Washington Center
Mon 08:22:54 AM 36.7953 -78.6447 54° Northeast 496 571 25,000 -1,513 Level Washington Center
Mon 08:23:54 AM 36.8939 -78.5369 41° Northeast 486 559 22,000 -350 Descending Washington Center
Mon 08:24:54 AM 37.0053 -78.4139 41° Northeast 486 559 24,300 400 Climbing Washington Center
Mon 08:25:54 AM 37.1081 -78.3031 41° Northeast 492 566 22,800 -1,150 Descending Washington Center
Mon 08:26:54 AM 37.2000 -78.1994 42° Northeast 492 566 22,000 -400 Descending Washington Center
Mon 08:27:54 AM 37.3089 -78.0803 41° Northeast 484 557 22,000 -250 Level Washington Center
Mon 08:28:54 AM 37.4072 -77.9658 43° Northeast 479 551 21,500 -950 Descending Washington Center
Mon 08:29:54 AM 37.5053 -77.8564 42° Northeast 474 545 20,100 -1,550 Descending Washington Center
Mon 08:30:54 AM 37.6175 -77.7758 30° Northeast 468 539 18,400 -1,550 Descending Washington Center
Mon 08:31:54 AM 37.7292 -77.7108 25° Northeast 451 519 17,000 -1,700 Descending Washington Center
Mon 08:32:54 AM 37.8386 -77.6481 24° Northeast 435 501 15,000 -2,050 Descending Washington Center
Mon 08:33:54 AM 37.9439 -77.5878 24° Northeast 418 481 12,900 -1,850 Descending Washington Center
Mon 08:34:54 AM 38.0322 -77.5372 24° Northeast 395 455 11,300 -1,350 Descending Washington Center
Mon 08:35:54 AM 38.1250 -77.4817 25° Northeast 376 433 10,200 -650 Descending Washington Center
Mon 08:36:54 AM 38.2028 -77.4361 25° Northeast 341 392 10,000 -200 Descending Washington Center
Mon 08:37:54 AM 38.2786 -77.3903 25° Northeast 307 353 9,800 -900 Descending Washington Center
Mon 08:38:54 AM 38.3500 -77.3628 17° North 284 327 8,200 -1,400 Descending Washington Center
Mon 08:39:54 AM 38.4225 -77.3964 340° North 261 300 7,000 -1,250 Descending Washington Center
Mon 08:40:54 AM 38.4928 -77.4325 338° Northwest 261 300 5,700 -1,000 Descending Washington Center
Mon 08:41:54 AM 38.5611 -77.4689 337° Northwest 261 300 5,000 -800 Descending Washington Center
Mon 08:42:54 AM 38.6236 -77.4678 North 249 287 4,100 -732 Descending Washington Center
Mon 08:43:16 AM 38.6500 -77.4667 North 237 273 4,000 -220 Descending Potomac TRACON
Mon 08:44:16 AM 38.7167 -77.4667 360° North 203 234 3,800 -850 Descending Potomac TRACON
Mon 08:45:16 AM 38.7667 -77.4667 360° North 194 223 2,300 -947 Descending Potomac TRACON
Mon 08:46:10 AM 38.8167 -77.4667 360° North 187 215 2,000 -333 Descending Potomac TRACON

Login

Don't have an account? Register now (free) for customized features, flight alerts, and more!